Time,TemperatureF,DewpointF,PressureIn,WindDirection,WindDirectionDegrees,WindSpeedMPH,WindSpeedGustMPH,Humidity,HourlyPrecipIn,Conditions,Clouds,dailyrainin,SoftwareType,DateUTC
2013-03-16 00:15:00,49.3,46.5,29.84,ESE,112,3.7,-999.0,90,-99.99,,,0.00,Acu-Link.com,2013-03-16 07:15:00,
2013-03-16 00:30:00,49.3,46.5,29.84,SW,225,2.2,-999.0,90,-99.99,,,0.00,Acu-Link.com,2013-03-16 07:30:00,
2013-03-16 00:45:00,49.3,46.5,29.83,West,270,5.3,-999.0,90,-99.99,,,0.00,Acu-Link.com,2013-03-16 07:45:00,
2013-03-16 01:00:00,49.3,46.5,29.84,East,90,4.2,-999.0,90,-99.99,,,0.00,Acu-Link.com,2013-03-16 08:00:00,
2013-03-16 01:15:00,49.1,46.3,29.84,SSE,157,5.3,-999.0,90,-99.99,,,0.00,Acu-Link.com,2013-03-16 08:15:00,
2013-03-16 01:30:00,49.1,46.3,29.83,ESE,112,5.8,-999.0,90,-99.99,,,0.00,Acu-Link.com,2013-03-16 08:30:00,
2013-03-16 01:46:00,48.9,46.1,29.83,East,90,2.7,-999.0,90,-99.99,,,0.00,Acu-Link.com,2013-03-16 08:46:00,
2013-03-16 02:01:00,48.9,46.1,29.83,ESE,112,3.2,-999.0,90,-99.99,,,0.00,Acu-Link.com,2013-03-16 09:01:00,
2013-03-16 02:31:00,48.9,46.1,29.83,SW,225,0.0,-999.0,90,-99.99,,,0.00,Acu-Link.com,2013-03-16 09:31:00,
2013-03-16 03:01:00,48.9,46.1,29.82,SSE,157,2.2,-999.0,90,-99.99,,,0.00,Acu-Link.com,2013-03-16 10:01:00,
2013-03-16 03:16:00,48.9,46.1,29.82,ESE,112,1.1,-999.0,90,-99.99,,,0.00,Acu-Link.com,2013-03-16 10:16:00,
2013-03-16 03:31:00,48.9,46.1,29.81,South,180,2.7,-999.0,90,-99.99,,,0.00,Acu-Link.com,2013-03-16 10:31:00,
2013-03-16 03:46:00,48.7,45.9,29.81,SSW,202,3.2,-999.0,90,-99.99,,,0.00,Acu-Link.com,2013-03-16 10:46:00,
2013-03-16 04:17:00,48.6,45.8,29.80,ESE,112,3.2,-999.0,90,-99.99,,,0.00,Acu-Link.com,2013-03-16 11:17:00,
2013-03-16 04:32:00,48.6,45.8,29.79,WSW,247,3.7,-999.0,90,-99.99,,,0.00,Acu-Link.com,2013-03-16 11:32:00,
2013-03-16 04:47:00,48.6,45.8,29.79,SSE,157,3.7,-999.0,90,-99.99,,,0.00,Acu-Link.com,2013-03-16 11:47:00,
2013-03-16 05:02:00,48.6,45.8,29.78,SSW,202,3.2,-999.0,90,-99.99,,,0.00,Acu-Link.com,2013-03-16 12:02:00,
2013-03-16 05:17:00,48.6,45.8,29.78,ESE,112,2.7,-999.0,90,-99.99,,,0.00,Acu-Link.com,2013-03-16 12:17:00,
2013-03-16 05:32:00,48.6,45.8,29.78,ESE,112,1.1,-999.0,90,-99.99,,,0.00,Acu-Link.com,2013-03-16 12:32:00,
2013-03-16 05:47:00,48.2,45.4,29.77,East,90,6.8,-999.0,90,-99.99,,,0.00,Acu-Link.com,2013-03-16 12:47:00,
2013-03-16 06:02:00,48.2,45.4,29.77,NE,45,3.2,-999.0,90,-99.99,,,0.00,Acu-Link.com,2013-03-16 13:02:00,
2013-03-16 06:18:00,48.2,45.4,29.77,ESE,112,0.0,-999.0,90,-99.99,,,0.00,Acu-Link.com,2013-03-16 13:18:00,
2013-03-16 06:33:00,48.2,45.4,29.76,ESE,112,1.7,-999.0,90,-99.99,,,0.00,Acu-Link.com,2013-03-16 13:33:00,
2013-03-16 06:48:00,48.2,45.4,29.75,East,90,4.2,-999.0,90,-99.99,,,0.00,Acu-Link.com,2013-03-16 13:48:00,
2013-03-16 07:03:00,48.2,45.4,29.74,SW,225,4.7,-999.0,90,-99.99,,,0.00,Acu-Link.com,2013-03-16 14:03:00,
2013-03-16 07:18:00,48.0,44.6,29.74,ENE,67,2.7,-999.0,88,-99.99,,,0.00,Acu-Link.com,2013-03-16 14:18:00,
2013-03-16 07:33:00,48.0,44.6,29.74,SSE,157,5.8,-999.0,88,-99.99,,,0.00,Acu-Link.com,2013-03-16 14:33:00,
2013-03-16 07:48:00,48.0,44.6,29.75,SSE,157,8.3,-999.0,88,-99.99,,,0.00,Acu-Link.com,2013-03-16 14:48:00,
2013-03-16 08:03:00,48.0,44.6,29.74,SSE,157,7.8,-999.0,88,-99.99,,,0.00,Acu-Link.com,2013-03-16 15:03:00,
2013-03-16 08:18:00,48.2,44.2,29.73,South,180,4.2,-999.0,86,-99.99,,,0.00,Acu-Link.com,2013-03-16 15:18:00,
2013-03-16 08:34:00,48.2,44.2,29.73,ESE,112,1.7,-999.0,86,-99.99,,,0.00,Acu-Link.com,2013-03-16 15:34:00,
2013-03-16 08:49:00,48.4,44.4,29.73,South,180,1.1,-999.0,86,-99.99,,,0.00,Acu-Link.com,2013-03-16 15:49:00,
2013-03-16 09:04:00,48.6,44.9,29.74,ESE,112,3.2,-999.0,87,-99.99,,,0.00,Acu-Link.com,2013-03-16 16:04:00,
2013-03-16 09:19:00,48.7,44.7,29.73,SSE,157,2.7,-999.0,86,-99.99,,,0.00,Acu-Link.com,2013-03-16 16:19:00,
2013-03-16 09:34:00,48.7,45.0,29.72,East,90,3.2,-999.0,87,-99.99,,,0.00,Acu-Link.com,2013-03-16 16:34:00,
2013-03-16 09:49:00,48.9,45.2,29.72,ESE,112,5.3,-999.0,87,-99.99,,,0.00,Acu-Link.com,2013-03-16 16:49:00,
2013-03-16 10:04:00,49.1,44.8,29.71,SSW,202,3.2,-999.0,85,-99.99,,,0.00,Acu-Link.com,2013-03-16 17:04:00,
2013-03-16 10:19:00,49.5,44.6,29.71,ESE,112,6.3,-999.0,83,-99.99,,,0.00,Acu-Link.com,2013-03-16 17:19:00,
2013-03-16 10:34:00,49.5,44.6,29.71,SW,225,3.2,-999.0,83,-99.99,,,0.00,Acu-Link.com,2013-03-16 17:34:00,
2013-03-16 10:50:00,49.6,45.0,29.71,West,270,6.3,-999.0,84,-99.99,,,0.00,Acu-Link.com,2013-03-16 17:50:00,
2013-03-16 11:05:00,49.8,44.8,29.69,SW,225,3.2,-999.0,83,-99.99,,,0.00,Acu-Link.com,2013-03-16 18:05:00,
2013-03-16 11:20:00,50.0,44.7,29.69,SSW,202,4.2,-999.0,82,-99.99,,,0.00,Acu-Link.com,2013-03-16 18:20:00,
2013-03-16 11:35:00,50.2,44.3,29.70,ESE,112,4.2,-999.0,80,-99.99,,,0.00,Acu-Link.com,2013-03-16 18:35:00,
2013-03-16 11:50:00,49.8,44.8,29.69,ESE,112,2.2,-999.0,83,-99.99,,,0.00,Acu-Link.com,2013-03-16 18:50:00,
2013-03-16 12:05:00,50.7,45.4,29.68,South,180,1.7,-999.0,82,-99.99,,,0.00,Acu-Link.com,2013-03-16 19:05:00,
2013-03-16 12:20:00,51.1,45.1,29.68,West,270,2.2,-999.0,80,-99.99,,,0.00,Acu-Link.com,2013-03-16 19:20:00,
2013-03-16 12:36:00,50.5,44.2,29.67,SW,225,3.2,-999.0,79,-99.99,,,0.00,Acu-Link.com,2013-03-16 19:36:00,
2013-03-16 12:51:00,50.9,44.6,29.66,SSE,157,3.7,-999.0,79,-99.99,,,0.00,Acu-Link.com,2013-03-16 19:51:00,
2013-03-16 13:06:00,50.9,44.3,29.65,SSE,157,7.3,-999.0,78,-99.99,,,0.00,Acu-Link.com,2013-03-16 20:06:00,
2013-03-16 13:21:00,51.1,44.1,29.64,NNE,22,3.7,-999.0,77,-99.99,,,0.00,Acu-Link.com,2013-03-16 20:21:00,
2013-03-16 13:36:00,51.6,44.6,29.64,WNW,292,5.3,-999.0,77,-99.99,,,0.00,Acu-Link.com,2013-03-16 20:36:00,
2013-03-16 13:51:00,50.9,45.0,29.62,SSW,202,5.3,-999.0,80,-99.99,,,0.00,Acu-Link.com,2013-03-16 20:51:00,
2013-03-16 14:07:00,48.7,45.6,29.63,SSW,202,11.9,-999.0,89,-99.99,,,0.03,Acu-Link.com,2013-03-16 21:07:00,
2013-03-16 14:37:00,50.2,43.3,29.61,South,180,10.4,-999.0,77,-99.99,,,0.03,Acu-Link.com,2013-03-16 21:37:00,
2013-03-16 15:07:00,50.2,41.2,29.60,SSW,202,5.8,-999.0,71,-99.99,,,0.03,Acu-Link.com,2013-03-16 22:07:00,
2013-03-16 15:22:00,50.2,41.9,29.60,SSE,157,2.7,-999.0,73,-99.99,,,0.03,Acu-Link.com,2013-03-16 22:22:00,
2013-03-16 15:37:00,50.0,41.0,29.60,SSE,157,4.7,-999.0,71,-99.99,,,0.03,Acu-Link.com,2013-03-16 22:37:00,
2013-03-16 15:52:00,50.7,40.5,29.60,SSW,202,7.8,-999.0,68,-99.99,,,0.03,Acu-Link.com,2013-03-16 22:52:00,
2013-03-16 16:07:00,50.0,39.5,29.60,South,180,6.3,-999.0,67,-99.99,,,0.03,Acu-Link.com,2013-03-16 23:07:00,
2013-03-16 16:23:00,50.4,40.6,29.58,SSW,202,6.8,-999.0,69,-99.99,,,0.03,Acu-Link.com,2013-03-16 23:23:00,
2013-03-16 16:38:00,50.0,40.6,29.58,SSE,157,7.3,-999.0,70,-99.99,,,0.03,Acu-Link.com,2013-03-16 23:38:00,
2013-03-16 16:53:00,48.6,39.6,29.58,SE,135,5.8,-999.0,71,-99.99,,,0.03,Acu-Link.com,2013-03-16 23:53:00,
2013-03-16 17:08:00,50.0,39.5,29.59,SW,225,5.3,-999.0,67,-99.99,,,0.03,Acu-Link.com,2013-03-17 00:08:00,
2013-03-16 17:23:00,47.8,37.8,29.59,SSW,202,4.2,-999.0,68,-99.99,,,0.03,Acu-Link.com,2013-03-17 00:23:00,
2013-03-16 17:38:00,48.2,38.1,29.59,South,180,5.3,-999.0,68,-99.99,,,0.03,Acu-Link.com,2013-03-17 00:38:00,
2013-03-16 17:53:00,49.3,38.0,29.59,SSW,202,2.2,-999.0,65,-99.99,,,0.03,Acu-Link.com,2013-03-17 00:53:00,
2013-03-16 18:23:00,48.9,37.7,29.61,SSW,202,1.7,-999.0,65,-99.99,,,0.03,Acu-Link.com,2013-03-17 01:23:00,
2013-03-16 18:39:00,48.6,37.4,29.60,SSW,202,8.9,-999.0,65,-99.99,,,0.03,Acu-Link.com,2013-03-17 01:39:00,
2013-03-16 18:54:00,47.1,37.5,29.61,WSW,247,3.7,-999.0,69,-99.99,,,0.03,Acu-Link.com,2013-03-17 01:54:00,
2013-03-16 19:09:00,46.8,37.5,29.61,ESE,112,2.7,-999.0,70,-99.99,,,0.03,Acu-Link.com,2013-03-17 02:09:00,
2013-03-16 19:24:00,46.2,36.2,29.61,SSW,202,6.8,-999.0,68,-99.99,,,0.03,Acu-Link.com,2013-03-17 02:24:00,
2013-03-16 19:39:00,45.1,37.0,29.61,ESE,112,5.8,-999.0,73,-99.99,,,0.03,Acu-Link.com,2013-03-17 02:39:00,
2013-03-16 19:54:00,43.2,37.5,29.61,SE,135,2.2,-999.0,80,-99.99,,,0.03,Acu-Link.com,2013-03-17 02:54:00,
2013-03-16 20:09:00,42.4,37.0,29.63,ESE,112,1.1,-999.0,81,-99.99,,,0.03,Acu-Link.com,2013-03-17 03:09:00,
2013-03-16 20:24:00,41.7,36.9,29.63,East,90,4.7,-999.0,83,-99.99,,,0.03,Acu-Link.com,2013-03-17 03:24:00,
2013-03-16 20:39:00,43.0,36.6,29.63,South,180,1.7,-999.0,78,-99.99,,,0.03,Acu-Link.com,2013-03-17 03:39:00,